Time;durP1;ratioP1;P1;durP2;ratioP2;P2;SDS_P1;SDS_P2;PMS_P1;PMS_P2;Temp;Humidity;BMP_temperature;BMP_pressure;BME280_temperature;BME280_humidity;BME280_pressure;Samples;Min_cycle;Max_cycle;Signal;HPM_P1;HPM_P2
2021/10/02 00:44:39;;;;;;;6.50;4.42;;;11.10;78.90;;;;;;1891755;75;21047;-49
2021/10/02 00:47:11;;;;;;;6.75;3.87;;;11.10;78.70;;;;;;1891586;74;21490;-47
2021/10/02 00:49:42;;;;;;;6.37;4.55;;;11.10;78.80;;;;;;1890735;75;21095;-46
2021/10/02 00:52:14;;;;;;;8.23;5.72;;;11.10;78.70;;;;;;1816597;78;21061;-48
2021/10/02 00:54:45;;;;;;;8.13;4.60;;;11.20;79.10;;;;;;1891647;75;21094;-47
2021/10/02 00:57:15;;;;;;;7.55;5.22;;;11.20;78.80;;;;;;1891610;75;21032;-49
2021/10/02 00:59:48;;;;;;;7.72;5.53;;;11.20;78.70;;;;;;1891527;75;21008;-49
2021/10/02 01:02:26;;;;;;;8.68;5.80;;;11.20;78.80;;;;;;1891732;75;21028;-49
2021/10/02 01:05:10;;;;;;;7.08;4.90;;;11.20;78.80;;;;;;1891625;74;21028;-48
2021/10/02 01:08:04;;;;;;;9.60;5.03;;;11.20;78.90;;;;;;1891888;75;21087;-48
2021/10/02 01:10:44;;;;;;;8.03;5.25;;;11.20;78.90;;;;;;1853910;75;21043;-49
2021/10/02 01:13:30;;;;;;;7.30;4.97;;;11.20;78.60;;;;;;1891628;75;21470;-49
2021/10/02 01:16:12;;;;;;;10.20;5.55;;;11.20;78.70;;;;;;1888873;75;21115;-49
2021/10/02 01:19:02;;;;;;;18.30;5.15;;;11.20;78.80;;;;;;1885233;76;21470;-47
2021/10/02 01:21:53;;;;;;;6.37;4.47;;;11.20;78.90;;;;;;1884342;76;21490;-49
2021/10/02 01:24:37;;;;;;;12.58;4.97;;;11.20;78.80;;;;;;1885103;75;21012;-47
2021/10/02 01:27:18;;;;;;;9.28;5.05;;;11.20;79.00;;;;;;1884122;75;21494;-48
2021/10/02 01:29:49;;;;;;;8.78;5.65;;;11.10;78.90;;;;;;1885209;75;21024;-47
2021/10/02 01:32:38;;;;;;;13.20;6.22;;;11.10;78.80;;;;;;1885222;75;21024;-50
2021/10/02 01:35:14;;;;;;;13.30;6.83;;;11.10;78.80;;;;;;1884767;75;21048;-46
2021/10/02 01:47:08;;;;;;;15.25;7.10;;;11.10;78.90;;;;;;1883786;76;21498;-47
2021/10/02 01:48:51;;;;;;;13.75;6.75;;;11.10;78.90;;;;;;1885269;75;21154;-48
2021/10/02 01:51:22;;;;;;;12.47;7.03;;;11.10;78.80;;;;;;1885383;75;21088;-48
2021/10/02 01:53:52;;;;;;;20.30;8.05;;;11.10;79.00;;;;;;1885189;75;21028;-48
2021/10/02 01:56:24;;;;;;;28.32;9.75;;;11.10;79.00;;;;;;1885329;75;21033;-49
2021/10/02 01:58:54;;;;;;;30.40;10.58;;;11.10;79.00;;;;;;1885199;76;21116;-49
2021/10/02 02:01:25;;;;;;;26.68;10.55;;;11.20;79.10;;;;;;1885398;75;21008;-46
2021/10/02 02:03:58;;;;;;;30.32;12.85;;;11.20;79.10;;;;;;1885317;76;21051;-47
2021/10/02 02:06:29;;;;;;;31.55;13.68;;;11.20;79.10;;;;;;1885323;75;21045;-48
2021/10/02 02:09:00;;;;;;;31.55;15.05;;;11.20;79.10;;;;;;1885093;75;21196;-47
2021/10/02 02:11:30;;;;;;;29.12;14.00;;;11.10;79.10;;;;;;1885250;75;21056;-49
2021/10/02 02:14:01;;;;;;;30.60;13.65;;;11.10;79.10;;;;;;1885117;75;21048;-48
2021/10/02 02:16:32;;;;;;;29.32;12.98;;;11.10;79.20;;;;;;1887865;75;21075;-48
2021/10/02 02:19:02;;;;;;;23.80;10.00;;;11.10;79.30;;;;;;1853212;76;21162;-47
2021/10/02 02:21:31;;;;;;;21.82;9.68;;;11.10;79.50;;;;;;1853364;76;21081;-48
2021/10/02 02:24:00;;;;;;;18.50;10.70;;;11.20;79.40;;;;;;1849715;76;21080;-48
2021/10/02 02:26:30;;;;;;;27.85;12.20;;;11.20;79.50;;;;;;1849823;77;21017;-49
2021/10/02 02:29:00;;;;;;;19.85;9.35;;;11.20;79.70;;;;;;1849780;77;21091;-47
2021/10/02 02:31:29;;;;;;;20.65;9.20;;;11.30;79.70;;;;;;1849698;77;21107;-46
2021/10/02 02:33:59;;;;;;;24.05;12.40;;;11.30;79.70;;;;;;1849826;77;21033;-50
2021/10/02 02:36:29;;;;;;;22.93;10.63;;;11.30;79.70;;;;;;1849750;77;21111;-49
2021/10/02 02:38:58;;;;;;;23.95;11.15;;;11.30;79.60;;;;;;1849834;77;21352;-49
2021/10/02 02:41:27;;;;;;;21.93;10.18;;;11.30;79.60;;;;;;1849730;77;21041;-50
2021/10/02 02:43:57;;;;;;;20.40;11.20;;;11.30;79.60;;;;;;1849713;76;21128;-47
2021/10/02 02:46:34;;;;;;;24.35;11.85;;;11.30;79.60;;;;;;1849861;77;21095;-48
2021/10/02 02:49:06;;;;;;;24.80;12.45;;;11.30;79.70;;;;;;1849075;76;21503;-49
2021/10/02 02:52:07;;;;;;;28.85;11.20;;;11.30;79.70;;;;;;1849629;77;21455;-48
2021/10/02 02:55:03;;;;;;;18.92;9.63;;;11.30;79.70;;;;;;1849724;77;21127;-49
2021/10/02 02:57:35;;;;;;;17.37;9.83;;;11.40;79.70;;;;;;1849776;76;21033;-49
2021/10/02 03:00:15;;;;;;;15.25;8.25;;;11.40;79.90;;;;;;1849491;76;21508;-49
2021/10/02 03:03:00;;;;;;;14.98;6.97;;;11.40;79.70;;;;;;1849718;77;21061;-48
2021/10/02 03:05:31;;;;;;;10.78;6.72;;;11.40;80.00;;;;;;1849178;77;21017;-49
2021/10/02 03:08:06;;;;;;;11.70;6.40;;;11.30;80.00;;;;;;1849740;76;21080;-48
2021/10/02 03:10:36;;;;;;;13.15;6.30;;;11.30;80.30;;;;;;1849677;76;21041;-48
2021/10/02 03:13:08;;;;;;;8.40;6.33;;;11.30;80.20;;;;;;1849703;76;21103;-47
2021/10/02 03:15:39;;;;;;;14.43;6.60;;;11.30;80.50;;;;;;1848679;76;21518;-50
2021/10/02 03:18:10;;;;;;;11.70;6.40;;;11.30;80.40;;;;;;1841581;77;21069;-49
2021/10/02 03:20:41;;;;;;;11.75;6.30;;;11.30;80.40;;;;;;1839718;77;21037;-50
2021/10/02 03:23:11;;;;;;;11.03;6.75;;;11.30;80.40;;;;;;1837650;77;21045;-48
2021/10/02 03:25:41;;;;;;;9.68;6.03;;;11.40;80.60;;;;;;1837740;77;21026;-46
2021/10/02 03:28:10;;;;;;;9.90;6.28;;;11.30;80.70;;;;;;1872720;77;21384;-48
2021/10/02 03:30:40;;;;;;;10.98;6.25;;;11.40;80.90;;;;;;1872846;75;21009;-46
2021/10/02 03:33:11;;;;;;;8.65;6.03;;;11.40;81.10;;;;;;1872793;75;21009;-45
2021/10/02 03:35:42;;;;;;;14.50;6.22;;;11.40;81.10;;;;;;1872871;76;21080;-45
2021/10/02 03:38:11;;;;;;;7.67;5.45;;;11.40;81.20;;;;;;1872924;75;21056;-47
2021/10/02 03:40:41;;;;;;;10.38;6.47;;;11.40;81.20;;;;;;1872771;75;21122;-46
2021/10/02 03:43:10;;;;;;;10.93;7.10;;;11.40;81.40;;;;;;1872827;75;21102;-46
2021/10/02 03:45:39;;;;;;;12.63;6.58;;;11.40;81.50;;;;;;1872804;77;21029;-46
2021/10/02 03:48:10;;;;;;;9.70;6.28;;;11.40;81.70;;;;;;1872769;77;21056;-49
2021/10/02 03:50:39;;;;;;;14.80;7.42;;;11.40;81.70;;;;;;1872771;77;21009;-46
2021/10/02 03:53:09;;;;;;;16.87;8.15;;;11.40;81.80;;;;;;1872761;76;21052;-47
2021/10/02 03:55:38;;;;;;;14.33;9.35;;;11.40;81.90;;;;;;1872753;76;21017;-47
2021/10/02 03:58:07;;;;;;;15.68;9.63;;;11.40;81.90;;;;;;1872781;76;21000;-46
2021/10/02 04:00:37;;;;;;;18.87;9.78;;;11.40;82.00;;;;;;1872740;76;21060;-46
2021/10/02 04:03:06;;;;;;;18.07;10.75;;;11.40;82.20;;;;;;1872786;75;21083;-46
2021/10/02 04:05:36;;;;;;;15.40;9.80;;;11.40;82.30;;;;;;1872815;75;21086;-46
2021/10/02 04:08:05;;;;;;;20.57;9.43;;;11.40;82.40;;;;;;1872806;76;20993;-46
2021/10/02 04:10:35;;;;;;;15.13;9.73;;;11.30;82.20;;;;;;1872814;77;21123;-49
2021/10/02 04:13:04;;;;;;;14.53;9.43;;;11.30;82.70;;;;;;1872968;76;21017;-46
2021/10/02 04:15:34;;;;;;;15.50;8.15;;;11.30;82.60;;;;;;1860912;76;21095;-47
2021/10/02 04:18:03;;;;;;;14.38;8.83;;;11.30;82.90;;;;;;1878391;75;21040;-46
2021/10/02 04:20:33;;;;;;;16.80;9.08;;;11.30;82.80;;;;;;1882210;75;21060;-46
2021/10/02 04:23:03;;;;;;;13.45;8.70;;;11.30;83.00;;;;;;1882349;76;21470;-46
2021/10/02 04:25:32;;;;;;;10.75;7.15;;;11.30;83.10;;;;;;1882304;76;21044;-45
2021/10/02 04:28:01;;;;;;;12.93;6.62;;;11.20;83.20;;;;;;1882139;75;21146;-46
2021/10/02 04:30:31;;;;;;;12.55;6.62;;;11.30;83.60;;;;;;1882219;76;21055;-45
2021/10/02 04:33:00;;;;;;;10.13;6.10;;;11.20;83.20;;;;;;1882246;76;21028;-45
2021/10/02 04:35:30;;;;;;;10.95;6.05;;;11.20;83.50;;;;;;1882291;76;21020;-45
2021/10/02 04:37:59;;;;;;;12.03;6.05;;;11.20;83.70;;;;;;1882265;76;21020;-45
2021/10/02 04:40:29;;;;;;;9.65;5.62;;;11.20;84.00;;;;;;1882118;75;21039;-46
2021/10/02 04:42:58;;;;;;;8.48;6.25;;;11.20;84.10;;;;;;1882277;76;21024;-48
2021/10/02 04:45:28;;;;;;;9.18;6.17;;;11.20;84.30;;;;;;1882200;76;21008;-49
2021/10/02 04:47:57;;;;;;;8.35;6.37;;;11.20;84.10;;;;;;1882258;75;21029;-46
2021/10/02 04:50:27;;;;;;;12.07;7.00;;;11.10;84.50;;;;;;1882240;76;21024;-50
2021/10/02 04:52:56;;;;;;;10.85;7.17;;;11.20;84.30;;;;;;1882179;75;21122;-45
2021/10/02 04:55:25;;;;;;;12.65;6.85;;;11.20;84.60;;;;;;1882286;76;21028;-45
2021/10/02 04:57:55;;;;;;;12.63;7.45;;;11.20;84.60;;;;;;1882219;76;21024;-48
2021/10/02 05:00:24;;;;;;;12.25;8.05;;;11.20;84.90;;;;;;1882171;75;21099;-48
2021/10/02 05:02:54;;;;;;;15.08;9.90;;;11.20;84.40;;;;;;1882278;76;21028;-46
2021/10/02 05:05:23;;;;;;;16.45;11.30;;;11.20;84.60;;;;;;1882077;76;21079;-46
2021/10/02 05:07:54;;;;;;;16.77;12.07;;;11.30;84.80;;;;;;1882066;75;21028;-48
2021/10/02 05:10:23;;;;;;;21.00;13.48;;;11.30;85.20;;;;;;1882300;75;21470;-49
2021/10/02 05:12:52;;;;;;;23.15;13.72;;;11.30;85.60;;;;;;1882381;75;21098;-49
2021/10/02 05:15:21;;;;;;;21.42;15.40;;;11.30;85.00;;;;;;1882417;75;21142;-48
2021/10/02 05:17:50;;;;;;;21.77;13.25;;;11.30;85.30;;;;;;1882311;75;21533;-49
2021/10/02 05:20:20;;;;;;;20.75;13.20;;;11.30;85.20;;;;;;1882258;75;21095;-49
2021/10/02 05:22:49;;;;;;;15.18;10.05;;;11.30;85.90;;;;;;1882355;75;21028;-48
2021/10/02 05:25:19;;;;;;;12.07;8.65;;;11.30;85.60;;;;;;1882345;75;21528;-49
2021/10/02 05:27:49;;;;;;;13.38;7.78;;;11.30;85.50;;;;;;1882310;76;21188;-48
2021/10/02 05:30:18;;;;;;;18.45;12.23;;;11.30;86.10;;;;;;1882190;75;21083;-48
2021/10/02 05:32:47;;;;;;;12.65;9.40;;;11.30;85.40;;;;;;1882311;75;21009;-50
2021/10/02 05:35:17;;;;;;;15.08;8.20;;;11.40;85.70;;;;;;1882282;76;21097;-48
2021/10/02 05:37:47;;;;;;;13.20;7.00;;;11.40;86.00;;;;;;1882422;76;21127;-47
2021/10/02 05:40:17;;;;;;;11.12;6.70;;;11.40;86.30;;;;;;1882387;75;21028;-48
2021/10/02 05:42:46;;;;;;;14.47;8.50;;;11.40;86.30;;;;;;1882369;75;21086;-48
2021/10/02 05:45:15;;;;;;;12.13;8.45;;;11.40;86.10;;;;;;1882375;75;21086;-46
2021/10/02 05:47:45;;;;;;;16.80;9.73;;;11.40;86.80;;;;;;1882308;76;21090;-48
2021/10/02 05:50:14;;;;;;;18.02;12.47;;;11.40;86.30;;;;;;1882466;75;21032;-46
2021/10/02 05:52:44;;;;;;;14.30;10.35;;;11.40;86.80;;;;;;1882308;75;21102;-45
2021/10/02 05:55:13;;;;;;;12.85;9.23;;;11.40;87.50;;;;;;1882344;75;21036;-49
2021/10/02 05:57:42;;;;;;;15.25;8.73;;;11.40;87.00;;;;;;1882431;75;21068;-47
2021/10/02 06:00:12;;;;;;;12.65;7.85;;;11.40;87.90;;;;;;1882397;75;21525;-46
2021/10/02 06:02:42;;;;;;;15.60;9.50;;;11.40;87.70;;;;;;1882325;76;21149;-46
2021/10/02 06:05:11;;;;;;;17.20;7.67;;;11.40;86.90;;;;;;1882416;75;21032;-49
2021/10/02 06:07:41;;;;;;;12.43;8.03;;;11.40;88.10;;;;;;1882279;75;21052;-46
2021/10/02 06:10:10;;;;;;;17.77;7.80;;;11.40;87.80;;;;;;1882362;75;21009;-49
2021/10/02 06:12:40;;;;;;;18.50;7.97;;;11.40;87.30;;;;;;1882451;76;21126;-48
2021/10/02 06:15:09;;;;;;;14.98;7.65;;;11.40;87.80;;;;;;1882340;75;21008;-47
2021/10/02 06:17:38;;;;;;;19.35;8.28;;;11.40;87.40;;;;;;1882303;75;21048;-50
2021/10/02 06:20:08;;;;;;;19.67;9.78;;;11.50;87.60;;;;;;1882242;75;21165;-49
2021/10/02 06:22:38;;;;;;;14.60;8.45;;;11.50;87.90;;;;;;1882255;75;21099;-48
2021/10/02 06:25:09;;;;;;;18.82;8.08;;;11.60;87.70;;;;;;1882294;75;21028;-49
2021/10/02 06:27:39;;;;;;;16.80;8.18;;;11.60;88.00;;;;;;1882376;75;21032;-49
2021/10/02 06:30:10;;;;;;;20.10;8.43;;;11.70;88.60;;;;;;1882411;75;21056;-50
2021/10/02 06:32:39;;;;;;;22.77;8.65;;;11.60;88.00;;;;;;1882347;75;21008;-50
2021/10/02 06:35:09;;;;;;;14.13;7.70;;;11.70;88.70;;;;;;1882298;75;21029;-49
2021/10/02 06:37:38;;;;;;;12.35;7.40;;;11.70;88.60;;;;;;1882449;75;21032;-49
2021/10/02 06:40:08;;;;;;;15.05;7.75;;;11.70;89.10;;;;;;1882317;76;21088;-49
2021/10/02 06:42:38;;;;;;;15.10;9.45;;;11.70;89.30;;;;;;1882384;75;21028;-49
2021/10/02 06:45:08;;;;;;;16.80;8.35;;;11.70;89.10;;;;;;1882319;76;21094;-47
2021/10/02 06:47:38;;;;;;;13.85;9.30;;;11.70;90.00;;;;;;1882212;75;21028;-49
2021/10/02 06:50:07;;;;;;;13.25;7.75;;;11.70;89.60;;;;;;1882334;76;21032;-47
2021/10/02 06:52:37;;;;;;;15.60;7.47;;;11.80;89.60;;;;;;1882296;75;21009;-49
2021/10/02 06:55:07;;;;;;;9.90;7.45;;;11.80;90.00;;;;;;1882385;75;21036;-46
2021/10/02 06:57:37;;;;;;;13.43;8.55;;;11.90;90.10;;;;;;1882422;75;21028;-47
2021/10/02 07:00:07;;;;;;;14.18;9.05;;;11.90;89.80;;;;;;1882354;75;21078;-46
2021/10/02 07:02:41;;;;;;;17.05;10.13;;;11.90;89.40;;;;;;1882497;75;21049;-48
2021/10/02 07:05:12;;;;;;;12.20;10.05;;;12.00;90.00;;;;;;1882511;76;21095;-49
2021/10/02 07:07:41;;;;;;;13.08;9.38;;;12.00;89.30;;;;;;1882263;75;21032;-48
2021/10/02 07:10:12;;;;;;;9.78;8.03;;;12.10;89.40;;;;;;1882282;75;21036;-49
2021/10/02 07:12:41;;;;;;;10.23;7.20;;;12.20;89.30;;;;;;1882374;75;21098;-49
2021/10/02 07:15:11;;;;;;;9.25;7.40;;;12.20;89.00;;;;;;1882288;75;21119;-47
2021/10/02 07:17:41;;;;;;;7.85;6.50;;;12.20;88.60;;;;;;1882278;76;21036;-47
2021/10/02 07:20:12;;;;;;;10.45;7.10;;;12.20;88.80;;;;;;1882232;75;21072;-49
2021/10/02 07:22:42;;;;;;;8.40;7.03;;;12.30;88.90;;;;;;1882289;75;21032;-46
2021/10/02 07:25:14;;;;;;;10.05;7.62;;;12.30;88.50;;;;;;1882361;75;21032;-48
2021/10/02 07:27:44;;;;;;;7.78;6.80;;;12.30;88.50;;;;;;1882350;76;21092;-45
2021/10/02 07:30:14;;;;;;;8.40;6.12;;;12.30;88.20;;;;;;1882304;75;21071;-49
2021/10/02 07:32:44;;;;;;;8.55;7.58;;;12.30;88.00;;;;;;1882376;75;21080;-49
2021/10/02 07:35:15;;;;;;;8.63;6.05;;;12.40;88.10;;;;;;1882184;76;21166;-48
2021/10/02 07:37:45;;;;;;;8.23;6.10;;;12.30;88.10;;;;;;1882318;76;21099;-47
2021/10/02 07:40:15;;;;;;;11.57;8.48;;;12.40;87.90;;;;;;1882359;76;21103;-47
2021/10/02 07:42:47;;;;;;;10.05;6.58;;;12.40;87.80;;;;;;1882173;76;21032;-49
2021/10/02 07:45:16;;;;;;;9.98;7.00;;;12.40;87.80;;;;;;1881790;75;21032;-46
2021/10/02 07:47:46;;;;;;;14.03;7.53;;;12.40;87.60;;;;;;1882078;75;21032;-47
2021/10/02 07:50:16;;;;;;;8.85;7.08;;;12.50;87.80;;;;;;1882160;75;21033;-45
2021/10/02 07:52:46;;;;;;;11.38;8.45;;;12.40;87.70;;;;;;1882205;75;21004;-46
2021/10/02 07:55:17;;;;;;;8.60;6.35;;;12.50;87.90;;;;;;1882273;75;21091;-45
2021/10/02 07:57:47;;;;;;;6.55;5.05;;;12.50;88.10;;;;;;1882194;76;21033;-49
2021/10/02 08:00:19;;;;;;;8.45;6.53;;;12.60;88.00;;;;;;1882283;76;21004;-46
2021/10/02 08:02:52;;;;;;;8.40;5.37;;;12.60;88.00;;;;;;1882179;75;21083;-48
2021/10/02 08:05:22;;;;;;;5.97;5.30;;;12.70;87.70;;;;;;1882375;75;21040;-49
2021/10/02 08:07:52;;;;;;;8.08;5.80;;;12.70;87.70;;;;;;1882446;75;21060;-46
2021/10/02 08:10:26;;;;;;;7.78;5.00;;;12.70;87.30;;;;;;1882449;76;21044;-46
2021/10/02 08:12:54;;;;;;;8.65;3.65;;;12.80;87.30;;;;;;1882236;75;21106;-46
2021/10/02 08:15:24;;;;;;;8.28;4.75;;;12.80;87.10;;;;;;1882294;76;21052;-47
2021/10/02 08:17:55;;;;;;;6.28;5.30;;;12.80;86.70;;;;;;1882220;76;21079;-45
2021/10/02 08:20:25;;;;;;;5.47;4.97;;;12.80;86.90;;;;;;1882184;75;21162;-48
2021/10/02 08:22:57;;;;;;;11.57;10.38;;;12.90;87.20;;;;;;1882162;75;21063;-49
2021/10/02 08:25:27;;;;;;;11.73;8.50;;;12.90;87.00;;;;;;1882220;75;21450;-48
2021/10/02 08:27:58;;;;;;;8.85;6.03;;;12.90;87.20;;;;;;1882062;76;21094;-48
2021/10/02 08:30:27;;;;;;;7.90;6.37;;;13.00;87.50;;;;;;1882148;76;21017;-48
2021/10/02 08:32:58;;;;;;;10.15;6.25;;;13.00;87.70;;;;;;1882064;75;21094;-46
2021/10/02 08:35:27;;;;;;;6.40;5.25;;;13.10;87.50;;;;;;1882188;76;21016;-47
2021/10/02 08:37:57;;;;;;;9.48;4.78;;;13.20;87.50;;;;;;1882163;75;21115;-46
2021/10/02 08:40:26;;;;;;;6.62;4.90;;;13.30;87.10;;;;;;1882270;75;21060;-46
2021/10/02 08:42:56;;;;;;;9.80;6.47;;;13.40;87.00;;;;;;1882250;75;21029;-46
2021/10/02 08:45:28;;;;;;;6.53;4.37;;;13.40;86.70;;;;;;1882271;75;21028;-46
2021/10/02 08:47:59;;;;;;;4.97;4.33;;;13.50;86.10;;;;;;1881341;76;21099;-51
2021/10/02 08:50:29;;;;;;;5.28;4.53;;;13.50;86.30;;;;;;1882361;76;21012;-46
2021/10/02 08:52:59;;;;;;;6.97;4.50;;;13.60;86.10;;;;;;1882601;75;21008;-46
2021/10/02 08:55:29;;;;;;;6.30;4.50;;;13.70;86.70;;;;;;1882301;75;21158;-47
2021/10/02 08:57:58;;;;;;;7.97;4.95;;;13.80;86.10;;;;;;1882339;75;21067;-46
2021/10/02 09:00:28;;;;;;;5.08;3.50;;;13.80;86.00;;;;;;1882388;75;21028;-46
2021/10/02 09:02:58;;;;;;;5.35;3.47;;;13.90;85.40;;;;;;1882267;75;21029;-47
2021/10/02 09:05:28;;;;;;;6.05;3.77;;;14.00;85.20;;;;;;1882373;75;21082;-46
2021/10/02 09:07:59;;;;;;;2.67;2.40;;;14.10;84.90;;;;;;1882292;76;21020;-46
2021/10/02 09:10:31;;;;;;;7.17;4.15;;;14.10;84.20;;;;;;1882376;76;20997;-50
2021/10/02 09:13:01;;;;;;;6.72;4.53;;;14.20;83.40;;;;;;1882329;76;21060;-47
2021/10/02 09:15:30;;;;;;;4.25;3.50;;;14.20;82.60;;;;;;1882411;75;21032;-46
2021/10/02 09:18:00;;;;;;;4.08;3.50;;;14.30;82.30;;;;;;1882454;76;21032;-47
2021/10/02 09:20:30;;;;;;;3.87;3.33;;;14.30;82.60;;;;;;1882286;75;21076;-46
2021/10/02 09:23:06;;;;;;;4.30;3.30;;;14.30;82.70;;;;;;1882264;75;21110;-45
2021/10/02 09:25:36;;;;;;;3.15;2.77;;;14.30;82.70;;;;;;1882319;76;21013;-47
2021/10/02 09:28:11;;;;;;;6.83;3.25;;;14.40;82.10;;;;;;1882205;75;21032;-46
2021/10/02 09:30:43;;;;;;;4.28;3.00;;;14.50;81.30;;;;;;1882559;75;21521;-47
2021/10/02 09:33:20;;;;;;;4.60;3.00;;;14.50;81.80;;;;;;1882352;75;21446;-47
2021/10/02 09:35:50;;;;;;;5.00;3.50;;;14.60;81.80;;;;;;1882492;75;20996;-50
2021/10/02 09:38:21;;;;;;;4.55;3.17;;;14.70;81.60;;;;;;1882366;75;21024;-48
2021/10/02 09:40:55;;;;;;;4.55;3.27;;;14.70;81.00;;;;;;1882366;75;21000;-47
2021/10/02 09:43:25;;;;;;;3.58;2.52;;;14.70;81.10;;;;;;1882469;76;21490;-48
2021/10/02 09:45:55;;;;;;;3.33;2.50;;;14.80;80.80;;;;;;1882462;76;21075;-46
2021/10/02 09:48:35;;;;;;;4.47;2.83;;;14.80;80.80;;;;;;1882304;75;21072;-49
2021/10/02 09:51:13;;;;;;;4.37;2.98;;;14.80;80.10;;;;;;1882364;75;21032;-46
2021/10/02 09:53:44;;;;;;;4.22;3.70;;;14.90;80.20;;;;;;1882449;76;21049;-46
2021/10/02 09:56:15;;;;;;;4.35;3.12;;;14.90;80.40;;;;;;1882391;75;21048;-46
2021/10/02 09:58:45;;;;;;;6.47;4.05;;;15.00;80.10;;;;;;1882283;75;21146;-48
2021/10/02 10:01:25;;;;;;;6.17;3.67;;;15.00;79.80;;;;;;1882423;76;21008;-47
2021/10/02 10:03:55;;;;;;;5.75;4.15;;;15.00;79.90;;;;;;1882313;76;21091;-50
2021/10/02 10:06:28;;;;;;;8.80;5.10;;;15.10;79.50;;;;;;1882383;75;21091;-46
2021/10/02 10:09:14;;;;;;;5.25;3.37;;;15.20;78.60;;;;;;1882371;75;21008;-50
2021/10/02 10:11:48;;;;;;;6.28;4.15;;;15.20;78.00;;;;;;1882296;75;21028;-49
2021/10/02 10:14:23;;;;;;;10.68;4.25;;;15.30;78.30;;;;;;1882003;76;21056;-49
2021/10/02 10:16:54;;;;;;;5.33;3.70;;;15.30;78.30;;;;;;1881554;76;21490;-48
2021/10/02 10:19:25;;;;;;;4.45;3.47;;;15.40;78.10;;;;;;1882315;76;21118;-47
2021/10/02 10:22:21;;;;;;;4.67;3.10;;;15.40;78.20;;;;;;1882403;75;21150;-48
2021/10/02 10:24:56;;;;;;;9.15;4.05;;;15.50;77.30;;;;;;1882420;76;21052;-47
2021/10/02 10:27:35;;;;;;;3.27;2.80;;;15.60;77.70;;;;;;1882225;76;21044;-46
2021/10/02 10:30:07;;;;;;;3.83;2.70;;;15.70;77.40;;;;;;1882368;75;21087;-49
2021/10/02 10:32:38;;;;;;;3.00;2.70;;;15.70;77.20;;;;;;1882168;75;21545;-49
2021/10/02 10:35:09;;;;;;;3.67;2.67;;;15.80;76.80;;;;;;1882318;75;21001;-47
2021/10/02 10:37:38;;;;;;;3.33;2.70;;;15.80;76.90;;;;;;1882283;75;21082;-48
2021/10/02 10:40:08;;;;;;;4.90;3.20;;;15.90;76.30;;;;;;1882455;76;21036;-48
2021/10/02 10:42:38;;;;;;;5.28;3.25;;;16.00;75.90;;;;;;1882250;75;21032;-48
2021/10/02 10:45:08;;;;;;;3.77;2.42;;;16.10;75.90;;;;;;1882334;75;21044;-49
2021/10/02 10:47:38;;;;;;;4.25;2.72;;;16.20;75.20;;;;;;1882211;75;21071;-47
2021/10/02 10:50:09;;;;;;;4.00;3.30;;;16.20;75.10;;;;;;1882377;75;21094;-47
2021/10/02 10:52:43;;;;;;;4.72;4.00;;;16.30;74.10;;;;;;1882315;75;21106;-47
2021/10/02 10:55:21;;;;;;;4.20;3.42;;;16.30;74.60;;;;;;1882497;75;21008;-50
2021/10/02 10:57:55;;;;;;;6.20;3.22;;;16.40;74.10;;;;;;1882256;75;21032;-47
2021/10/02 11:00:33;;;;;;;5.03;3.35;;;16.40;74.10;;;;;;1882591;76;21024;-46
2021/10/02 11:03:04;;;;;;;5.83;3.60;;;16.40;73.10;;;;;;1878752;76;21082;-48
2021/10/02 11:05:43;;;;;;;6.03;2.60;;;16.50;73.30;;;;;;1882033;75;21008;-47
2021/10/02 11:08:16;;;;;;;4.72;3.30;;;16.50;71.60;;;;;;1882360;75;21005;-47
2021/10/02 11:10:48;;;;;;;7.33;3.67;;;16.50;72.60;;;;;;1882019;76;21091;-48
2021/10/02 11:13:22;;;;;;;3.42;2.92;;;16.60;73.20;;;;;;1882477;75;21034;-48
2021/10/02 11:15:53;;;;;;;3.05;2.75;;;16.60;72.40;;;;;;1879155;76;21068;-47
2021/10/02 11:18:45;;;;;;;5.50;3.60;;;16.60;72.00;;;;;;1882333;75;21044;-48
2021/10/02 11:21:19;;;;;;;6.03;4.22;;;16.60;72.30;;;;;;1880633;75;21131;-47
2021/10/02 11:24:09;;;;;;;7.37;3.95;;;16.70;72.30;;;;;;1872880;76;21087;-49
2021/10/02 11:26:50;;;;;;;3.77;2.90;;;16.70;72.10;;;;;;1872860;76;21053;-52
2021/10/02 11:29:31;;;;;;;3.67;2.62;;;16.80;72.20;;;;;;1872816;75;21084;-51
2021/10/02 11:32:22;;;;;;;7.72;3.10;;;16.80;71.90;;;;;;1872853;75;21072;-49
2021/10/02 11:35:10;;;;;;;3.92;2.92;;;16.90;72.10;;;;;;1872849;75;21082;-50
2021/10/02 11:37:54;;;;;;;4.35;2.95;;;16.90;71.20;;;;;;1872727;75;21021;-49
2021/10/02 11:40:35;;;;;;;7.67;3.00;;;17.00;71.00;;;;;;1872933;75;21017;-47
2021/10/02 11:43:17;;;;;;;2.58;2.17;;;17.00;70.40;;;;;;1864387;77;21033;-50
2021/10/02 11:45:48;;;;;;;2.37;1.92;;;17.10;69.70;;;;;;1872838;76;21009;-50
2021/10/02 11:48:23;;;;;;;3.02;2.33;;;17.10;69.60;;;;;;1872741;76;21115;-50
2021/10/02 11:51:18;;;;;;;3.15;2.52;;;17.10;68.80;;;;;;1873072;77;21447;-49
2021/10/02 11:53:55;;;;;;;16.20;3.73;;;17.10;68.80;;;;;;1873009;75;21067;-50
2021/10/02 11:56:27;;;;;;;4.05;2.62;;;17.10;69.10;;;;;;1872859;77;21033;-50
2021/10/02 11:58:58;;;;;;;4.03;2.25;;;17.20;69.80;;;;;;1872680;76;21044;-50
2021/10/02 12:01:35;;;;;;;4.65;2.90;;;17.20;69.50;;;;;;1872896;75;21079;-51
2021/10/02 12:04:07;;;;;;;7.92;3.20;;;17.20;69.20;;;;;;1872850;75;21546;-50
2021/10/02 12:06:40;;;;;;;4.42;2.95;;;17.20;69.00;;;;;;1872811;75;21159;-46
2021/10/02 12:09:19;;;;;;;4.37;3.35;;;17.20;68.30;;;;;;1872780;76;21005;-50
2021/10/02 12:11:51;;;;;;;4.03;2.30;;;17.20;68.20;;;;;;1872852;75;21103;-50
2021/10/02 12:14:22;;;;;;;4.60;3.17;;;17.10;67.80;;;;;;1872925;75;21072;-49
2021/10/02 12:17:00;;;;;;;4.95;2.90;;;17.10;68.60;;;;;;1872738;75;21110;-49
2021/10/02 12:19:31;;;;;;;3.95;2.95;;;17.10;68.30;;;;;;1872803;75;21479;-50
2021/10/02 12:22:03;;;;;;;6.35;3.05;;;17.10;68.70;;;;;;1863111;76;21068;-48
2021/10/02 12:24:35;;;;;;;6.45;3.98;;;17.10;68.20;;;;;;1884841;76;21040;-49
2021/10/02 12:27:10;;;;;;;4.28;2.90;;;17.10;68.00;;;;;;1884818;76;21063;-47
2021/10/02 12:29:47;;;;;;;5.10;3.90;;;17.10;68.20;;;;;;1885117;76;21020;-47
2021/10/02 12:32:22;;;;;;;6.17;4.00;;;17.10;68.40;;;;;;1884867;76;21052;-49
2021/10/02 12:35:00;;;;;;;4.83;2.60;;;17.20;68.70;;;;;;1884953;76;21091;-49
2021/10/02 12:37:32;;;;;;;3.72;3.35;;;17.20;67.80;;;;;;1884793;76;21020;-49
2021/10/02 12:40:04;;;;;;;4.08;3.20;;;17.30;67.90;;;;;;1884867;75;21086;-50
2021/10/02 12:42:39;;;;;;;4.75;2.40;;;17.40;68.20;;;;;;1884901;75;21097;-49
2021/10/02 12:45:11;;;;;;;5.60;2.20;;;17.50;67.20;;;;;;1885137;76;21052;-49
2021/10/02 12:47:42;;;;;;;5.72;2.52;;;17.50;67.40;;;;;;1884899;75;21024;-50
2021/10/02 12:50:14;;;;;;;5.37;2.75;;;17.50;66.90;;;;;;1884906;76;21475;-48
2021/10/02 12:52:43;;;;;;;6.00;2.92;;;17.60;67.40;;;;;;1884907;76;21497;-49
2021/10/02 12:55:14;;;;;;;4.95;2.95;;;17.60;67.20;;;;;;1884844;75;21068;-48
2021/10/02 12:57:46;;;;;;;5.17;3.22;;;17.60;67.30;;;;;;1884810;75;21102;-47
2021/10/02 13:00:24;;;;;;;6.25;2.80;;;17.70;66.70;;;;;;1863044;76;21076;-50
2021/10/02 13:03:00;;;;;;;3.92;2.98;;;17.60;66.10;;;;;;1884846;75;21178;-49
2021/10/02 13:05:31;;;;;;;6.45;3.55;;;17.60;65.90;;;;;;1884114;76;21079;-49
2021/10/02 13:08:03;;;;;;;4.80;3.00;;;17.60;65.30;;;;;;1885002;75;21102;-48
2021/10/02 13:10:35;;;;;;;5.33;3.90;;;17.60;65.00;;;;;;1884864;76;21086;-48
2021/10/02 13:13:09;;;;;;;7.10;3.45;;;17.60;65.80;;;;;;1884790;75;21020;-49
2021/10/02 13:15:56;;;;;;;7.17;4.00;;;17.70;65.50;;;;;;1885065;75;21029;-50
2021/10/02 13:18:28;;;;;;;17.00;5.60;;;17.60;65.60;;;;;;1884729;75;21095;-49
2021/10/02 13:21:07;;;;;;;8.10;4.33;;;17.60;65.70;;;;;;1884864;76;21048;-50
2021/10/02 13:23:41;;;;;;;5.10;2.90;;;17.50;65.40;;;;;;1883213;75;21068;-50
2021/10/02 13:26:21;;;;;;;7.62;3.75;;;17.50;65.60;;;;;;1882316;75;21032;-47
2021/10/02 13:28:53;;;;;;;5.97;4.25;;;17.50;65.60;;;;;;1882336;75;21005;-50
2021/10/02 13:31:24;;;;;;;6.03;4.45;;;17.40;65.70;;;;;;1882408;75;21098;-51
2021/10/02 13:33:55;;;;;;;5.40;3.60;;;17.40;65.80;;;;;;1882314;75;21150;-50
2021/10/02 13:36:34;;;;;;;7.80;4.17;;;17.50;65.60;;;;;;1882341;75;21035;-48
2021/10/02 13:39:20;;;;;;;5.10;3.27;;;17.50;65.90;;;;;;1882435;76;21028;-47
2021/10/02 13:41:53;;;;;;;5.97;3.08;;;17.50;65.50;;;;;;1882428;75;21193;-50
2021/10/02 13:44:31;;;;;;;4.33;2.80;;;17.50;65.20;;;;;;1882417;75;21036;-50
2021/10/02 13:47:05;;;;;;;8.45;4.75;;;17.50;64.80;;;;;;1882364;76;21024;-49
2021/10/02 13:49:33;;;;;;;8.70;4.10;;;17.50;65.20;;;;;;1882406;76;21083;-50
2021/10/02 13:52:03;;;;;;;5.78;3.92;;;17.50;65.50;;;;;;1882252;76;21056;-50
2021/10/02 13:54:33;;;;;;;4.15;3.10;;;17.50;65.50;;;;;;1882349;75;21033;-50
2021/10/02 13:57:06;;;;;;;8.55;3.60;;;17.40;65.40;;;;;;1882282;75;21103;-49
2021/10/02 13:59:33;;;;;;;7.55;4.15;;;17.40;65.70;;;;;;1882206;75;21032;-50